Terminal Aerodrome Forecast
Issued by NWS

Home | Current Version | Previous Version | Text Only | Print | Product List | Glossary On
Versions: 1 2 3 4 5 6 7 8 9 10 11 12 13 14 15 16 17 18 19 20 21
128
FTUS43 KJKL 030214 AAA
TAFSJS
TAF AMD
KSJS 030214Z 0302/0324 VRB03KT P6SM BKN005 OVC035
     FM030600 VRB03KT 5SM BR BKN005
     FM031300 28004KT P6SM VCSH BKN003
     FM031700 28005KT P6SM VCSH BKN025=

USA.gov is the U.S. government's official web portal to all federal, state and local government web resources and services.